Time;durP1;ratioP1;P1;durP2;ratioP2;P2;SDS_P1;SDS_P2;PMS_P1;PMS_P2;Temp;Humidity;BMP_temperature;BMP_pressure;BME280_temperature;BME280_humidity;BME280_pressure;Samples;Min_cycle;Max_cycle;Signal;HPM_P1;HPM_P2
2023/10/30 00:01:39;;;;;;;;;;;9.70;99.90;;;;;;5046814;28;19931;-78
2023/10/30 00:04:05;;;;;;;;;;;9.70;99.90;;;;;;5048038;28;20383;-78
2023/10/30 00:06:32;;;;;;;;;;;9.70;99.90;;;;;;5082218;28;19925;-78
2023/10/30 00:08:57;;;;;;;;;;;9.70;99.90;;;;;;5056463;28;19931;-78
2023/10/30 00:11:23;;;;;;;;;;;9.70;99.90;;;;;;5097706;28;19925;-78
2023/10/30 00:13:48;;;;;;;;;;;9.70;99.90;;;;;;5043675;28;19952;-78
2023/10/30 00:16:15;;;;;;;;;;;9.70;99.90;;;;;;5035678;28;20031;-79
2023/10/30 00:18:41;;;;;;;;;;;9.60;99.90;;;;;;5072377;28;20348;-79
2023/10/30 00:21:10;;;;;;;;;;;9.70;99.90;;;;;;5062344;28;19924;-78
2023/10/30 00:23:36;;;;;;;;;;;9.60;99.90;;;;;;5029139;28;20299;-78
2023/10/30 00:26:03;;;;;;;;;;;9.70;99.90;;;;;;5029212;28;19925;-78
2023/10/30 00:28:30;;;;;;;;;;;9.70;99.90;;;;;;5059200;28;19932;-78
2023/10/30 00:30:56;;;;;;;;;;;9.60;99.90;;;;;;5060839;28;20435;-78
2023/10/30 00:33:21;;;;;;;;;;;9.60;99.90;;;;;;5036859;28;19925;-78
2023/10/30 00:35:47;;;;;;;;;;;9.60;99.90;;;;;;5072595;28;20352;-78
2023/10/30 00:38:12;;;;;;;;;;;9.60;99.90;;;;;;5065488;28;19925;-78
2023/10/30 00:40:38;;;;;;;;;;;9.60;99.90;;;;;;5061031;28;19966;-78
2023/10/30 00:43:04;;;;;;;;;;;9.60;99.90;;;;;;5072004;28;19939;-78
2023/10/30 00:45:30;;;;;;;;;;;9.60;99.90;;;;;;5081037;28;19939;-78
2023/10/30 00:47:55;;;;;;;;;;;9.60;99.90;;;;;;5050857;28;19947;-78
2023/10/30 00:50:21;;;;;;;;;;;9.50;99.90;;;;;;5079269;28;19928;-78
2023/10/30 00:52:47;;;;;;;;;;;9.50;99.90;;;;;;5037988;28;19999;-78
2023/10/30 00:55:13;;;;;;;;;;;9.50;99.90;;;;;;5096903;28;19928;-79
2023/10/30 00:57:38;;;;;;;;;;;9.50;99.90;;;;;;5092928;28;19924;-79
2023/10/30 01:00:04;;;;;;;;;;;9.50;99.90;;;;;;5071789;28;19924;-79
2023/10/30 01:02:30;;;;;;;;;;;9.50;99.90;;;;;;5060455;28;19933;-78
2023/10/30 01:04:56;;;;;;;;;;;9.50;99.90;;;;;;5028592;28;19925;-79
2023/10/30 01:07:21;;;;;;;;;;;9.50;99.90;;;;;;5078600;28;19928;-79
2023/10/30 01:09:49;;;;;;;;;;;9.50;99.90;;;;;;5095152;28;19924;-79
2023/10/30 01:12:14;;;;;;;;;;;9.50;99.90;;;;;;5081081;28;19932;-79
2023/10/30 01:14:40;;;;;;;;;;;9.50;99.90;;;;;;5079508;28;20088;-79
2023/10/30 01:17:06;;;;;;;;;;;9.50;99.90;;;;;;5057207;28;20322;-79
2023/10/30 01:19:31;;;;;;;;;;;9.50;99.90;;;;;;5048735;28;19971;-79
2023/10/30 01:21:57;;;;;;;;;;;9.50;99.90;;;;;;5080051;28;19924;-79
2023/10/30 01:24:22;;;;;;;;;;;9.40;99.90;;;;;;5063303;28;19968;-79
2023/10/30 01:26:48;;;;;;;;;;;9.40;99.90;;;;;;5030673;28;19920;-79
2023/10/30 01:29:14;;;;;;;;;;;9.40;99.90;;;;;;5084428;28;19974;-78
2023/10/30 01:31:39;;;;;;;;;;;9.40;99.90;;;;;;5051954;28;19928;-79
2023/10/30 01:34:05;;;;;;;;;;;9.40;99.90;;;;;;5082729;28;19925;-78
2023/10/30 01:36:31;;;;;;;;;;;9.50;99.90;;;;;;5085670;28;20021;-79
2023/10/30 01:38:57;;;;;;;;;;;9.50;99.90;;;;;;5049037;28;19932;-79
2023/10/30 01:41:23;;;;;;;;;;;9.50;99.90;;;;;;5077504;28;19935;-79
2023/10/30 01:43:49;;;;;;;;;;;9.50;99.90;;;;;;5047646;28;19928;-79
2023/10/30 01:46:15;;;;;;;;;;;9.50;99.90;;;;;;5093771;28;20377;-79
2023/10/30 01:48:41;;;;;;;;;;;9.50;99.90;;;;;;5059297;28;19929;-79
2023/10/30 01:51:07;;;;;;;;;;;9.50;99.90;;;;;;5044223;28;19924;-78
2023/10/30 01:53:34;;;;;;;;;;;9.50;99.90;;;;;;5045649;28;19932;-79
2023/10/30 01:56:01;;;;;;;;;;;9.50;99.90;;;;;;5093002;28;19930;-78
2023/10/30 01:58:27;;;;;;;;;;;9.50;99.90;;;;;;5076109;28;19928;-78
2023/10/30 02:00:53;;;;;;;;;;;9.40;99.90;;;;;;5044228;28;20014;-78
2023/10/30 02:03:19;;;;;;;;;;;9.50;99.90;;;;;;5092519;28;19928;-78
2023/10/30 02:05:44;;;;;;;;;;;9.50;99.90;;;;;;5041125;28;19928;-78
2023/10/30 02:08:11;;;;;;;;;;;9.50;99.90;;;;;;5045238;28;19979;-78
2023/10/30 02:10:36;;;;;;;;;;;9.50;99.90;;;;;;5076909;28;19930;-78
2023/10/30 02:13:09;;;;;;;;;;;9.40;99.90;;;;;;5081687;28;20362;-78
2023/10/30 02:15:34;;;;;;;;;;;9.40;99.90;;;;;;5047012;28;20304;-78
2023/10/30 02:18:00;;;;;;;;;;;9.40;99.90;;;;;;5093561;28;19932;-79
2023/10/30 02:20:26;;;;;;;;;;;9.40;99.90;;;;;;5100362;28;19929;-79
2023/10/30 02:22:52;;;;;;;;;;;9.40;99.90;;;;;;5080690;28;20371;-78
2023/10/30 02:25:17;;;;;;;;;;;9.40;99.90;;;;;;5048904;28;20334;-78
2023/10/30 02:27:43;;;;;;;;;;;9.40;99.90;;;;;;5079250;28;20429;-78
2023/10/30 02:30:11;;;;;;;;;;;9.40;99.90;;;;;;5063122;28;19983;-78
2023/10/30 02:32:44;;;;;;;;;;;9.40;99.90;;;;;;5076909;28;19951;-78
2023/10/30 02:35:10;;;;;;;;;;;9.40;99.90;;;;;;5048048;28;19924;-78
2023/10/30 02:37:36;;;;;;;;;;;9.40;99.90;;;;;;5097656;28;19971;-78
2023/10/30 02:40:02;;;;;;;;;;;9.40;99.90;;;;;;5077711;28;20152;-78
2023/10/30 02:42:27;;;;;;;;;;;9.40;99.90;;;;;;5046146;28;19931;-78
2023/10/30 02:44:53;;;;;;;;;;;9.50;99.90;;;;;;5064531;28;19983;-78
2023/10/30 02:47:20;;;;;;;;;;;9.50;99.90;;;;;;5063530;28;19951;-78
2023/10/30 02:49:46;;;;;;;;;;;9.50;99.90;;;;;;5079917;28;19932;-78
2023/10/30 02:52:11;;;;;;;;;;;9.50;99.90;;;;;;5065938;28;19924;-77
2023/10/30 02:54:37;;;;;;;;;;;9.50;99.90;;;;;;5051141;28;20019;-78
2023/10/30 02:57:02;;;;;;;;;;;9.50;99.90;;;;;;5055250;28;20376;-78
2023/10/30 02:59:28;;;;;;;;;;;9.60;99.90;;;;;;5062862;28;19951;-78
2023/10/30 03:01:54;;;;;;;;;;;9.60;99.90;;;;;;5059646;28;19975;-78
2023/10/30 03:04:19;;;;;;;;;;;9.60;99.90;;;;;;5078691;28;20285;-78
2023/10/30 03:06:45;;;;;;;;;;;9.60;99.90;;;;;;5043452;28;19925;-78
2023/10/30 03:09:10;;;;;;;;;;;9.60;99.90;;;;;;5043775;28;20419;-79
2023/10/30 03:11:36;;;;;;;;;;;9.60;99.90;;;;;;5039785;28;19925;-78
2023/10/30 03:14:01;;;;;;;;;;;9.60;99.90;;;;;;5039834;28;19926;-78
2023/10/30 03:16:27;;;;;;;;;;;9.60;99.90;;;;;;5038717;28;20292;-78
2023/10/30 03:18:53;;;;;;;;;;;9.60;99.90;;;;;;5028032;28;19929;-78
2023/10/30 03:21:19;;;;;;;;;;;9.60;99.90;;;;;;5055385;28;19950;-78
2023/10/30 03:23:44;;;;;;;;;;;9.50;99.90;;;;;;5039064;28;19932;-77
2023/10/30 03:26:10;;;;;;;;;;;9.50;99.90;;;;;;5057489;28;19929;-78
2023/10/30 03:28:35;;;;;;;;;;;9.60;99.90;;;;;;5028981;28;19964;-78
2023/10/30 03:31:05;;;;;;;;;;;9.50;99.90;;;;;;5037790;28;19960;-78
2023/10/30 03:33:31;;;;;;;;;;;9.60;99.90;;;;;;5008205;28;20285;-78
2023/10/30 03:35:56;;;;;;;;;;;9.50;99.90;;;;;;5034709;28;20005;-78
2023/10/30 03:38:22;;;;;;;;;;;9.60;99.90;;;;;;5056000;28;19962;-78
2023/10/30 03:40:48;;;;;;;;;;;9.50;99.90;;;;;;5071800;28;19936;-78
2023/10/30 03:43:16;;;;;;;;;;;9.60;99.90;;;;;;5056110;28;19928;-78
2023/10/30 03:45:41;;;;;;;;;;;9.60;99.90;;;;;;5029860;28;20269;-78
2023/10/30 03:48:07;;;;;;;;;;;9.60;99.90;;;;;;5057184;28;19956;-78
2023/10/30 03:50:32;;;;;;;;;;;9.50;99.90;;;;;;5041471;28;19929;-79
2023/10/30 03:52:58;;;;;;;;;;;9.60;99.90;;;;;;5035574;28;19933;-79
2023/10/30 03:55:23;;;;;;;;;;;9.60;99.90;;;;;;5053331;28;19989;-78
2023/10/30 03:57:49;;;;;;;;;;;9.60;99.90;;;;;;5039415;28;19934;-79
2023/10/30 04:00:15;;;;;;;;;;;9.60;99.90;;;;;;5058060;28;19929;-78
2023/10/30 04:02:40;;;;;;;;;;;9.60;99.90;;;;;;5055932;28;19945;-79
2023/10/30 04:05:06;;;;;;;;;;;9.60;99.90;;;;;;5063035;28;19960;-80
2023/10/30 04:07:32;;;;;;;;;;;9.60;99.90;;;;;;5089759;28;19977;-80
2023/10/30 04:09:57;;;;;;;;;;;9.60;99.90;;;;;;5079092;28;19994;-80
2023/10/30 04:12:23;;;;;;;;;;;9.60;99.90;;;;;;5076987;28;19964;-79
2023/10/30 04:14:50;;;;;;;;;;;9.60;99.90;;;;;;5071599;28;19931;-79
2023/10/30 04:17:15;;;;;;;;;;;9.60;99.90;;;;;;5086903;28;20434;-78
2023/10/30 04:19:41;;;;;;;;;;;9.60;99.90;;;;;;5078949;28;19999;-79
2023/10/30 04:22:06;;;;;;;;;;;9.60;99.90;;;;;;5078931;28;19945;-78
2023/10/30 04:24:32;;;;;;;;;;;9.60;99.90;;;;;;5078318;28;19936;-78
2023/10/30 04:26:57;;;;;;;;;;;9.60;99.90;;;;;;5077502;28;19924;-78
2023/10/30 04:29:23;;;;;;;;;;;9.60;99.90;;;;;;5094279;28;19992;-80
2023/10/30 04:31:49;;;;;;;;;;;9.50;99.90;;;;;;5076359;28;19924;-79
2023/10/30 04:34:14;;;;;;;;;;;9.50;99.90;;;;;;5094870;28;19970;-79
2023/10/30 04:36:40;;;;;;;;;;;9.50;99.90;;;;;;5069410;28;19984;-79
2023/10/30 04:39:08;;;;;;;;;;;9.50;99.90;;;;;;5047450;28;19955;-79
2023/10/30 04:41:34;;;;;;;;;;;9.40;99.90;;;;;;5085444;28;19924;-79
2023/10/30 04:44:00;;;;;;;;;;;9.50;99.90;;;;;;5059705;28;20001;-79
2023/10/30 04:46:25;;;;;;;;;;;9.50;99.90;;;;;;5044420;28;19992;-79
2023/10/30 04:48:51;;;;;;;;;;;9.50;99.90;;;;;;5078443;28;19932;-79
2023/10/30 04:51:16;;;;;;;;;;;9.40;99.90;;;;;;5090222;28;19931;-79
2023/10/30 04:53:42;;;;;;;;;;;9.40;99.90;;;;;;5077978;28;19928;-79
2023/10/30 04:56:09;;;;;;;;;;;9.40;99.90;;;;;;5080239;28;19966;-79
2023/10/30 04:58:35;;;;;;;;;;;9.40;99.90;;;;;;5065787;28;19925;-79
2023/10/30 05:01:05;;;;;;;;;;;9.30;99.90;;;;;;5093495;28;20019;-78
2023/10/30 05:03:31;;;;;;;;;;;9.30;99.90;;;;;;5037952;28;19936;-79
2023/10/30 05:06:00;;;;;;;;;;;9.30;99.90;;;;;;5044956;28;19925;-79
2023/10/30 05:08:26;;;;;;;;;;;9.30;99.90;;;;;;5021936;28;20048;-79
2023/10/30 05:10:51;;;;;;;;;;;9.30;99.90;;;;;;5036918;28;20490;-79
2023/10/30 05:13:17;;;;;;;;;;;9.30;99.90;;;;;;5021348;28;19980;-79
2023/10/30 05:15:43;;;;;;;;;;;9.20;99.90;;;;;;5021433;28;19937;-79
2023/10/30 05:18:08;;;;;;;;;;;9.20;99.90;;;;;;5007455;28;19925;-79
2023/10/30 05:20:34;;;;;;;;;;;9.20;99.90;;;;;;5021317;28;21256;-79
2023/10/30 05:22:59;;;;;;;;;;;9.20;99.90;;;;;;5023874;28;20476;-79
2023/10/30 05:25:25;;;;;;;;;;;9.10;99.90;;;;;;5005295;28;19936;-79
2023/10/30 05:27:51;;;;;;;;;;;9.10;99.90;;;;;;5019800;28;20008;-79
2023/10/30 05:30:17;;;;;;;;;;;9.10;99.90;;;;;;5017930;28;19925;-78
2023/10/30 05:32:42;;;;;;;;;;;9.10;99.90;;;;;;5005300;28;19932;-79
2023/10/30 05:35:08;;;;;;;;;;;9.10;99.90;;;;;;5038037;28;19959;-79
2023/10/30 05:37:33;;;;;;;;;;;9.00;99.90;;;;;;5031844;28;19925;-79
2023/10/30 05:39:59;;;;;;;;;;;9.00;99.90;;;;;;5023208;28;19929;-79
2023/10/30 05:42:25;;;;;;;;;;;9.00;99.90;;;;;;5023108;28;19925;-81
2023/10/30 05:44:51;;;;;;;;;;;9.00;99.90;;;;;;5021868;28;20036;-80
2023/10/30 05:47:16;;;;;;;;;;;9.00;99.90;;;;;;5010757;28;20411;-80
2023/10/30 05:49:42;;;;;;;;;;;9.00;99.90;;;;;;5038392;28;19925;-81
2023/10/30 05:52:09;;;;;;;;;;;9.00;99.90;;;;;;5038822;28;19925;-81
2023/10/30 05:54:35;;;;;;;;;;;9.00;99.90;;;;;;5035515;28;19929;-80
2023/10/30 05:57:01;;;;;;;;;;;9.00;99.90;;;;;;5038286;28;20478;-79
2023/10/30 05:59:26;;;;;;;;;;;9.00;99.90;;;;;;5010459;28;19929;-79
2023/10/30 06:01:52;;;;;;;;;;;9.10;99.90;;;;;;5022972;28;19929;-79
2023/10/30 06:04:17;;;;;;;;;;;9.10;99.90;;;;;;5040433;28;19951;-78
2023/10/30 06:06:43;;;;;;;;;;;9.10;99.90;;;;;;5029916;28;19954;-79
2023/10/30 06:09:09;;;;;;;;;;;9.20;99.90;;;;;;5072198;28;19961;-79
2023/10/30 06:11:34;;;;;;;;;;;9.10;99.90;;;;;;5018388;28;19925;-80
2023/10/30 06:14:00;;;;;;;;;;;9.20;99.90;;;;;;5033343;28;19929;-80
2023/10/30 06:16:25;;;;;;;;;;;9.10;99.90;;;;;;5062261;28;19926;-80
2023/10/30 06:18:51;;;;;;;;;;;9.20;99.90;;;;;;5044663;28;19929;-79
2023/10/30 06:21:17;;;;;;;;;;;9.20;99.90;;;;;;5028560;28;19932;-80
2023/10/30 06:23:42;;;;;;;;;;;9.20;99.90;;;;;;5056107;28;19976;-79
2023/10/30 06:26:09;;;;;;;;;;;9.30;99.90;;;;;;5038129;28;20007;-80
2023/10/30 06:28:35;;;;;;;;;;;9.30;99.90;;;;;;5044765;28;19925;-80
2023/10/30 06:31:02;;;;;;;;;;;9.20;99.90;;;;;;5047532;28;20472;-80
2023/10/30 06:33:28;;;;;;;;;;;9.30;99.90;;;;;;5063364;28;19972;-80
2023/10/30 06:35:58;;;;;;;;;;;9.30;99.90;;;;;;5049122;28;19932;-80
2023/10/30 06:38:24;;;;;;;;;;;9.30;99.90;;;;;;5087420;28;19924;-81
2023/10/30 06:40:50;;;;;;;;;;;9.30;99.90;;;;;;5058758;28;19971;-79
2023/10/30 06:43:15;;;;;;;;;;;9.40;99.90;;;;;;5056771;28;19961;-80
2023/10/30 06:45:41;;;;;;;;;;;9.30;99.90;;;;;;5081060;28;19925;-80
2023/10/30 06:48:07;;;;;;;;;;;9.40;99.90;;;;;;5014479;28;20181;-78
2023/10/30 06:50:33;;;;;;;;;;;9.40;99.90;;;;;;5090544;28;19947;-80
2023/10/30 06:52:58;;;;;;;;;;;9.40;99.90;;;;;;5080821;28;19929;-80
2023/10/30 06:55:24;;;;;;;;;;;9.40;99.90;;;;;;5064201;28;19940;-80
2023/10/30 06:57:49;;;;;;;;;;;9.40;99.90;;;;;;5053845;28;19928;-79
2023/10/30 07:00:18;;;;;;;;;;;9.40;99.90;;;;;;5080660;28;19924;-80
2023/10/30 07:02:44;;;;;;;;;;;9.50;99.90;;;;;;5065352;28;19965;-80
2023/10/30 07:05:10;;;;;;;;;;;9.50;99.90;;;;;;5040916;28;20398;-80
2023/10/30 07:07:36;;;;;;;;;;;9.50;99.90;;;;;;5099712;28;19974;-80
2023/10/30 07:10:05;;;;;;;;;;;9.60;99.90;;;;;;5028924;28;19963;-79
2023/10/30 07:12:30;;;;;;;;;;;9.60;99.90;;;;;;5073432;28;19932;-80
2023/10/30 07:14:56;;;;;;;;;;;9.70;99.90;;;;;;5045008;28;19939;-80
2023/10/30 07:17:22;;;;;;;;;;;9.70;99.90;;;;;;5029285;28;20008;-80
2023/10/30 07:19:48;;;;;;;;;;;9.70;99.90;;;;;;5058614;28;19928;-79
2023/10/30 07:22:14;;;;;;;;;;;9.70;99.90;;;;;;5075289;28;19928;-80
2023/10/30 07:24:39;;;;;;;;;;;9.70;99.90;;;;;;5061256;28;20410;-80
2023/10/30 07:27:05;;;;;;;;;;;9.80;99.90;;;;;;5049041;28;19939;-79
2023/10/30 07:29:31;;;;;;;;;;;9.80;99.90;;;;;;5043979;28;20403;-79
2023/10/30 07:31:56;;;;;;;;;;;9.80;99.90;;;;;;5089722;28;20045;-78
2023/10/30 07:34:22;;;;;;;;;;;9.90;99.90;;;;;;5080796;28;20012;-79
2023/10/30 07:36:48;;;;;;;;;;;9.90;99.90;;;;;;5031841;28;20462;-79
2023/10/30 07:39:13;;;;;;;;;;;10.00;99.90;;;;;;5030046;28;19927;-78
2023/10/30 07:41:39;;;;;;;;;;;10.00;99.90;;;;;;5044055;28;19932;-79
2023/10/30 07:44:05;;;;;;;;;;;10.10;99.90;;;;;;5039812;28;19925;-80
2023/10/30 07:46:30;;;;;;;;;;;10.10;99.90;;;;;;5055511;28;19928;-81
2023/10/30 07:48:56;;;;;;;;;;;10.10;99.90;;;;;;5073063;28;20146;-80
2023/10/30 07:51:22;;;;;;;;;;;10.20;99.90;;;;;;5034463;28;19924;-81
2023/10/30 07:53:47;;;;;;;;;;;10.20;99.90;;;;;;5062186;28;19946;-80
2023/10/30 07:56:13;;;;;;;;;;;10.20;99.90;;;;;;5062660;28;19940;-80
2023/10/30 07:58:39;;;;;;;;;;;10.30;99.90;;;;;;5074836;28;19932;-88
2023/10/30 08:01:04;;;;;;;;;;;10.30;99.90;;;;;;5042647;28;19967;-91
2023/10/30 08:03:30;;;;;;;;;;;10.40;99.90;;;;;;5045373;28;19928;-90
2023/10/30 08:05:59;;;;;;;;;;;10.40;99.90;;;;;;5083714;28;19924;-90
2023/10/30 08:08:25;;;;;;;;;;;10.40;99.90;;;;;;5050822;28;19924;-92
2023/10/30 08:10:50;;;;;;;;;;;10.50;99.90;;;;;;5046212;28;19929;-90
2023/10/30 08:13:16;;;;;;;;;;;10.50;99.90;;;;;;5029605;28;19928;-88
2023/10/30 08:15:42;;;;;;;;;;;10.50;99.90;;;;;;5038882;28;19931;-88
2023/10/30 08:18:07;;;;;;;;;;;10.60;99.90;;;;;;5043593;28;19928;-89
2023/10/30 08:20:33;;;;;;;;;;;10.60;99.90;;;;;;5032504;28;19925;-89
2023/10/30 08:22:59;;;;;;;;;;;10.70;99.90;;;;;;5058833;28;19930;-88
2023/10/30 08:25:26;;;;;;;;;;;10.80;99.90;;;;;;5082100;28;19924;-89
2023/10/30 08:27:52;;;;;;;;;;;10.80;99.90;;;;;;5042981;28;19985;-89
2023/10/30 08:30:18;;;;;;;;;;;10.90;99.90;;;;;;5061878;28;20442;-92
2023/10/30 08:32:44;;;;;;;;;;;11.00;99.90;;;;;;5067671;28;20328;-92
2023/10/30 08:35:09;;;;;;;;;;;11.00;99.90;;;;;;5069287;28;19924;-93
2023/10/30 08:37:35;;;;;;;;;;;11.10;99.90;;;;;;5087440;28;19974;-93
2023/10/30 08:40:00;;;;;;;;;;;11.10;99.90;;;;;;5039177;28;19939;-91
2023/10/30 08:42:26;;;;;;;;;;;11.20;99.90;;;;;;5067366;28;19963;-90
2023/10/30 08:44:52;;;;;;;;;;;11.20;99.90;;;;;;5038270;28;19936;-91
2023/10/30 08:47:17;;;;;;;;;;;11.20;99.90;;;;;;5081641;28;20049;-89
2023/10/30 08:49:43;;;;;;;;;;;11.30;99.90;;;;;;5040547;28;19924;-89
2023/10/30 08:52:09;;;;;;;;;;;11.30;99.90;;;;;;5080124;28;19924;-90
2023/10/30 08:54:35;;;;;;;;;;;11.40;99.90;;;;;;5052965;28;19950;-89
2023/10/30 08:57:02;;;;;;;;;;;11.40;99.90;;;;;;5043898;28;19995;-88
2023/10/30 08:59:27;;;;;;;;;;;11.50;99.90;;;;;;5041317;28;19979;-91
2023/10/30 09:01:53;;;;;;;;;;;11.50;99.90;;;;;;5028530;28;19924;-92
2023/10/30 09:04:18;;;;;;;;;;;11.60;99.90;;;;;;5076242;28;19974;-91
2023/10/30 09:06:44;;;;;;;;;;;11.60;99.90;;;;;;5039514;28;19935;-91
2023/10/30 09:09:11;;;;;;;;;;;11.70;99.90;;;;;;5043521;28;19925;-94
2023/10/30 09:11:37;;;;;;;;;;;11.90;99.90;;;;;;5086662;28;19925;-91
2023/10/30 09:14:03;;;;;;;;;;;12.00;99.90;;;;;;5048021;28;19932;-89
2023/10/30 09:16:29;;;;;;;;;;;12.10;99.90;;;;;;5028171;28;20026;-92
2023/10/30 09:18:55;;;;;;;;;;;12.20;99.90;;;;;;5044802;28;19924;-89
2023/10/30 09:21:20;;;;;;;;;;;12.30;99.90;;;;;;5050002;28;20338;-80
2023/10/30 09:23:46;;;;;;;;;;;12.60;99.90;;;;;;5030097;28;19929;-79
2023/10/30 09:26:13;;;;;;;;;;;13.00;99.90;;;;;;5041939;28;19924;-81
2023/10/30 09:28:39;;;;;;;;;;;13.30;99.90;;;;;;5097607;28;19991;-80
2023/10/30 09:31:05;;;;;;;;;;;13.50;99.90;;;;;;5105654;28;19932;-82
2023/10/30 09:33:31;;;;;;;;;;;13.60;99.90;;;;;;5062459;28;19932;-80
2023/10/30 09:35:57;;;;;;;;;;;13.50;99.90;;;;;;5032792;28;19924;-80
2023/10/30 09:38:25;;;;;;;;;;;13.30;99.90;;;;;;5044301;28;19969;-80
2023/10/30 09:40:56;;;;;;;;;;;13.20;99.90;;;;;;5100000;28;19931;-80
2023/10/30 09:43:25;;;;;;;;;;;13.10;99.90;;;;;;5075175;28;20019;-81
2023/10/30 09:45:53;;;;;;;;;;;12.90;99.90;;;;;;5060127;28;19967;-79
2023/10/30 09:48:19;;;;;;;;;;;12.80;99.90;;;;;;5047155;28;20428;-80
2023/10/30 09:50:45;;;;;;;;;;;12.70;99.90;;;;;;5050375;28;19928;-80
2023/10/30 09:53:11;;;;;;;;;;;12.60;99.90;;;;;;5051153;28;19935;-80
2023/10/30 09:55:37;;;;;;;;;;;12.50;99.90;;;;;;5053456;28;19931;-80
2023/10/30 09:58:03;;;;;;;;;;;12.40;99.90;;;;;;5033379;28;19924;-80
2023/10/30 10:00:29;;;;;;;;;;;12.40;99.90;;;;;;5037547;28;19968;-80
2023/10/30 10:02:55;;;;;;;;;;;12.40;99.90;;;;;;5068801;28;20033;-79
2023/10/30 10:05:20;;;;;;;;;;;12.40;99.90;;;;;;5019974;28;20721;-80
2023/10/30 10:07:46;;;;;;;;;;;12.40;99.90;;;;;;5006046;28;19943;-80
2023/10/30 10:10:14;;;;;;;;;;;12.40;99.90;;;;;;5012053;28;20388;-79
2023/10/30 10:12:40;;;;;;;;;;;12.40;99.90;;;;;;5014052;28;19925;-79
2023/10/30 10:15:06;;;;;;;;;;;12.50;99.90;;;;;;4998703;28;20396;-80
2023/10/30 10:17:39;;;;;;;;;;;12.50;99.90;;;;;;5027546;28;20421;-81
2023/10/30 10:20:05;;;;;;;;;;;12.70;99.90;;;;;;5040294;28;19948;-80
2023/10/30 10:22:31;;;;;;;;;;;12.90;99.90;;;;;;5036475;28;20299;-80
2023/10/30 10:24:59;;;;;;;;;;;13.10;99.90;;;;;;5030783;28;20580;-80
2023/10/30 10:27:24;;;;;;;;;;;13.20;99.90;;;;;;5023207;28;19926;-80
2023/10/30 10:29:54;;;;;;;;;;;13.30;99.90;;;;;;5041877;28;20422;-82
2023/10/30 10:32:27;;;;;;;;;;;13.30;99.90;;;;;;5021296;28;20013;-80
2023/10/30 10:34:54;;;;;;;;;;;13.30;99.90;;;;;;5027684;28;20502;-80
2023/10/30 10:37:20;;;;;;;;;;;13.40;99.90;;;;;;5040433;28;19959;-80
2023/10/30 10:39:47;;;;;;;;;;;13.50;99.90;;;;;;5027897;28;19986;-79
2023/10/30 10:42:13;;;;;;;;;;;13.60;99.90;;;;;;5032264;28;19948;-81
2023/10/30 10:44:39;;;;;;;;;;;13.60;99.90;;;;;;5025857;28;19925;-80
2023/10/30 10:47:05;;;;;;;;;;;13.70;99.90;;;;;;5021775;28;19924;-79
2023/10/30 10:49:31;;;;;;;;;;;13.70;99.90;;;;;;5011430;28;19929;-79
2023/10/30 10:51:57;;;;;;;;;;;13.70;99.90;;;;;;5048070;28;19940;-80
2023/10/30 10:54:26;;;;;;;;;;;13.70;99.90;;;;;;5073430;28;20372;-80
2023/10/30 10:56:53;;;;;;;;;;;13.70;99.90;;;;;;5029602;28;19948;-80
2023/10/30 10:59:21;;;;;;;;;;;13.70;99.90;;;;;;5008925;28;19925;-87
2023/10/30 11:01:49;;;;;;;;;;;13.70;99.90;;;;;;5042879;28;19928;-90
2023/10/30 11:04:16;;;;;;;;;;;13.60;99.90;;;;;;5063937;28;19924;-94
2023/10/30 11:06:46;;;;;;;;;;;13.60;99.90;;;;;;5051911;28;19989;-93
2023/10/30 11:09:21;;;;;;;;;;;13.60;99.90;;;;;;5098250;28;19931;-92
2023/10/30 11:12:06;;;;;;;;;;;13.60;99.90;;;;;;5071740;28;19925;-89
2023/10/30 11:14:38;;;;;;;;;;;13.60;99.90;;;;;;5067474;28;19932;-91
2023/10/30 11:17:05;;;;;;;;;;;13.70;99.90;;;;;;5062338;28;19924;-94
2023/10/30 11:19:32;;;;;;;;;;;13.80;99.90;;;;;;5048545;28;19935;-92
2023/10/30 11:21:59;;;;;;;;;;;13.90;99.90;;;;;;5066442;28;19924;-91
2023/10/30 11:24:34;;;;;;;;;;;13.90;99.90;;;;;;5069096;28;19928;-89
2023/10/30 11:27:00;;;;;;;;;;;13.80;99.90;;;;;;5095880;28;19939;-91
2023/10/30 11:29:45;;;;;;;;;;;13.80;99.90;;;;;;5080888;28;20015;-91
2023/10/30 11:32:14;;;;;;;;;;;13.80;99.90;;;;;;5064816;28;19935;-90
2023/10/30 11:34:40;;;;;;;;;;;13.90;99.90;;;;;;5067682;28;19959;-91
2023/10/30 11:37:11;;;;;;;;;;;13.90;99.90;;;;;;5056103;28;20279;-94
2023/10/30 11:39:40;;;;;;;;;;;13.80;99.90;;;;;;5029030;28;19924;-93
2023/10/30 11:42:21;;;;;;;;;;;13.90;99.90;;;;;;5093078;28;19924;-93
2023/10/30 11:44:47;;;;;;;;;;;13.90;99.90;;;;;;5066167;28;19942;-90
2023/10/30 11:47:12;;;;;;;;;;;13.90;99.90;;;;;;5053794;28;19931;-87
2023/10/30 11:49:40;;;;;;;;;;;14.00;99.90;;;;;;5081659;28;19928;-89
2023/10/30 11:52:12;;;;;;;;;;;14.00;99.90;;;;;;5062680;28;20340;-90
2023/10/30 11:54:39;;;;;;;;;;;14.00;99.90;;;;;;5064075;28;19964;-90
2023/10/30 11:57:05;;;;;;;;;;;14.10;99.90;;;;;;5082656;28;19936;-90
2023/10/30 11:59:31;;;;;;;;;;;14.20;99.90;;;;;;5049442;28;19999;-90
2023/10/30 12:01:57;;;;;;;;;;;14.20;99.90;;;;;;5062337;28;19971;-90
2023/10/30 12:04:23;;;;;;;;;;;14.30;99.90;;;;;;5076497;28;19928;-89
2023/10/30 12:06:49;;;;;;;;;;;14.30;99.90;;;;;;5044641;28;19932;-92
2023/10/30 12:09:15;;;;;;;;;;;14.30;99.90;;;;;;5071575;28;19938;-90
2023/10/30 12:11:41;;;;;;;;;;;14.40;99.90;;;;;;5048783;28;20413;-91
2023/10/30 12:14:07;;;;;;;;;;;14.40;99.90;;;;;;5057605;28;19931;-90
2023/10/30 12:16:36;;;;;;;;;;;14.50;99.90;;;;;;5065053;28;19935;-87
2023/10/30 12:19:02;;;;;;;;;;;14.40;99.90;;;;;;5042611;28;19928;-89
2023/10/30 12:21:29;;;;;;;;;;;14.40;99.90;;;;;;5076603;28;19932;-90
2023/10/30 12:23:57;;;;;;;;;;;14.40;99.90;;;;;;5041757;28;19977;-89
2023/10/30 12:26:23;;;;;;;;;;;14.40;99.90;;;;;;5049370;28;19925;-89
2023/10/30 12:28:49;;;;;;;;;;;14.50;99.90;;;;;;5017448;28;19925;-89
2023/10/30 12:31:28;;;;;;;;;;;14.50;99.90;;;;;;5022382;28;19935;-88
2023/10/30 12:34:22;;;;;;;;;;;14.50;99.90;;;;;;5038027;28;19928;-89
2023/10/30 12:36:47;;;;;;;;;;;14.50;99.90;;;;;;5059134;28;19932;-88
2023/10/30 12:39:17;;;;;;;;;;;14.60;99.90;;;;;;5063061;28;19924;-90
2023/10/30 12:41:43;;;;;;;;;;;14.60;99.90;;;;;;5082043;28;20437;-90
2023/10/30 12:44:09;;;;;;;;;;;14.60;99.90;;;;;;5042687;28;19924;-91
2023/10/30 12:46:34;;;;;;;;;;;14.70;99.90;;;;;;5057227;28;19924;-90
2023/10/30 12:49:00;;;;;;;;;;;14.60;99.90;;;;;;5056045;28;19936;-91
2023/10/30 12:51:26;;;;;;;;;;;14.60;99.90;;;;;;5041811;28;21426;-90
2023/10/30 12:53:51;;;;;;;;;;;14.60;99.90;;;;;;5023734;28;19924;-89
2023/10/30 12:56:17;;;;;;;;;;;14.60;99.90;;;;;;5041604;28;19924;-91
2023/10/30 12:58:43;;;;;;;;;;;14.60;99.90;;;;;;5092425;28;20379;-91
2023/10/30 13:01:08;;;;;;;;;;;14.60;99.90;;;;;;5041317;28;19924;-90
2023/10/30 13:03:34;;;;;;;;;;;14.60;99.90;;;;;;5038915;28;20009;-91
2023/10/30 13:06:00;;;;;;;;;;;14.60;99.90;;;;;;5021586;28;19925;-90
2023/10/30 13:08:25;;;;;;;;;;;14.60;99.90;;;;;;5049171;28;19936;-91
2023/10/30 13:10:51;;;;;;;;;;;14.60;99.90;;;;;;5037478;28;19935;-89
2023/10/30 13:13:18;;;;;;;;;;;14.50;99.90;;;;;;5029267;28;19936;-91
2023/10/30 13:15:45;;;;;;;;;;;14.50;99.90;;;;;;5043737;28;19925;-90
2023/10/30 13:18:14;;;;;;;;;;;14.40;99.90;;;;;;5077319;28;19940;-88
2023/10/30 13:20:39;;;;;;;;;;;14.40;99.90;;;;;;5044681;28;19933;-90
2023/10/30 13:23:05;;;;;;;;;;;14.40;99.90;;;;;;5033580;28;19935;-87
2023/10/30 13:25:31;;;;;;;;;;;14.40;99.90;;;;;;5070282;28;19929;-80
2023/10/30 13:27:57;;;;;;;;;;;14.40;99.90;;;;;;5052465;28;19925;-79
2023/10/30 13:30:23;;;;;;;;;;;14.30;99.90;;;;;;5022803;28;19929;-80
2023/10/30 13:32:48;;;;;;;;;;;14.30;99.90;;;;;;5036595;28;19925;-82
2023/10/30 13:35:14;;;;;;;;;;;14.30;99.90;;;;;;5035383;28;20573;-82
2023/10/30 13:37:40;;;;;;;;;;;14.30;99.90;;;;;;5038594;28;19947;-80
2023/10/30 13:40:06;;;;;;;;;;;14.30;99.90;;;;;;5048162;28;19928;-80
2023/10/30 13:42:32;;;;;;;;;;;14.30;99.90;;;;;;5029031;28;19925;-81
2023/10/30 13:44:58;;;;;;;;;;;14.30;99.90;;;;;;5028018;28;19925;-82
2023/10/30 13:47:23;;;;;;;;;;;14.30;99.90;;;;;;5049483;28;19963;-80
2023/10/30 13:49:49;;;;;;;;;;;14.30;99.90;;;;;;5026246;28;19947;-80
2023/10/30 13:52:14;;;;;;;;;;;14.20;99.90;;;;;;5034746;28;19964;-80
2023/10/30 13:54:40;;;;;;;;;;;14.30;99.90;;;;;;5042842;28;20053;-79
2023/10/30 13:57:06;;;;;;;;;;;14.20;99.90;;;;;;5066113;28;20031;-79
2023/10/30 13:59:32;;;;;;;;;;;14.20;99.90;;;;;;5042154;28;19925;-80
2023/10/30 14:01:58;;;;;;;;;;;14.20;99.90;;;;;;5025136;28;20015;-79
2023/10/30 14:04:23;;;;;;;;;;;14.20;99.90;;;;;;5056036;28;19956;-80
2023/10/30 14:06:49;;;;;;;;;;;14.20;99.90;;;;;;5050492;28;19964;-80
2023/10/30 14:09:15;;;;;;;;;;;14.20;99.90;;;;;;5046522;28;20427;-79
2023/10/30 14:11:40;;;;;;;;;;;14.20;99.90;;;;;;5060400;28;20106;-79
2023/10/30 14:14:06;;;;;;;;;;;14.20;99.90;;;;;;5046335;28;19925;-81
2023/10/30 14:16:31;;;;;;;;;;;14.20;99.90;;;;;;5039112;28;19933;-80
2023/10/30 14:18:57;;;;;;;;;;;14.20;99.90;;;;;;5030481;28;19925;-81